createdAt,value
2019-04-22T00:00:51.431Z,100825.88
2019-04-22T00:03:23.567Z,100822.84
2019-04-22T00:06:14.858Z,100820.00
2019-04-22T00:08:50.655Z,100816.50
2019-04-22T00:11:25.582Z,100816.16
2019-04-22T00:16:33.885Z,100814.17
2019-04-22T00:21:31.935Z,100809.34
2019-04-22T00:24:07.525Z,100810.83
2019-04-22T00:26:37.428Z,100809.31
2019-04-22T00:29:21.056Z,100810.30
2019-04-22T00:31:47.992Z,100806.65
2019-04-22T00:34:16.189Z,100807.80
2019-04-22T00:36:48.333Z,100809.63
2019-04-22T00:39:28.332Z,100807.47
2019-04-22T00:41:56.066Z,100804.30
2019-04-22T00:44:33.300Z,100808.45
2019-04-22T00:46:59.560Z,100797.81
2019-04-22T00:50:07.885Z,100794.64
2019-04-22T00:52:16.514Z,100793.81
2019-04-22T00:54:35.984Z,100791.47
2019-04-22T00:57:09.182Z,100795.78
2019-04-22T00:59:40.319Z,100787.27
2019-04-22T01:02:13.359Z,100783.94
2019-04-22T01:07:11.643Z,100784.90
2019-04-22T01:09:45.020Z,100781.33
2019-04-22T01:12:21.003Z,100783.13
2019-04-22T01:14:52.018Z,100777.78
2019-04-22T01:17:21.250Z,100780.29
2019-04-22T01:19:58.597Z,100772.30
2019-04-22T01:22:22.338Z,100770.75
2019-04-22T01:24:50.253Z,100769.89
2019-04-22T01:27:20.599Z,100768.34
2019-04-22T01:29:48.890Z,100763.34
2019-04-22T01:32:15.338Z,100764.33
2019-04-22T01:34:52.695Z,100765.13
2019-04-22T01:37:28.829Z,100760.95
2019-04-22T01:40:09.877Z,100758.22
2019-04-22T01:42:43.204Z,100759.06
2019-04-22T01:45:13.878Z,100759.40
2019-04-22T01:47:47.069Z,100757.69
2019-04-22T01:50:21.434Z,100752.34
2019-04-22T01:52:52.132Z,100748.50
2019-04-22T01:55:27.732Z,100750.47
2019-04-22T01:57:47.654Z,100743.48
2019-04-22T02:00:15.237Z,100746.45
2019-04-22T02:02:58.814Z,100743.90
2019-04-22T02:05:22.816Z,100744.89
2019-04-22T02:07:59.463Z,100738.05
2019-04-22T02:10:34.694Z,100742.30
2019-04-22T02:13:04.479Z,100733.62
2019-04-22T02:15:31.690Z,100733.55
2019-04-22T02:18:11.987Z,100728.39
2019-04-22T02:20:41.168Z,100733.36
2019-04-22T02:23:43.889Z,100731.84
2019-04-22T02:28:38.467Z,100732.47
2019-04-22T02:31:20.103Z,100724.99
2019-04-22T02:56:31.300Z,100717.22
2019-04-22T02:59:02.431Z,100708.17
2019-04-22T03:09:12.518Z,100694.77
2019-04-22T03:16:38.363Z,100691.86
2019-04-22T03:19:26.051Z,100687.92
2019-04-22T03:21:36.704Z,100677.66
2019-04-22T03:24:20.147Z,100678.25
2019-04-22T03:29:15.068Z,100671.70
2019-04-22T03:37:21.072Z,100659.94
2019-04-22T03:42:09.808Z,100656.38
2019-04-22T03:44:42.783Z,100652.40
2019-04-22T03:49:49.913Z,100650.33
2019-04-22T03:52:22.893Z,100647.11
2019-04-22T03:54:54.475Z,100645.69
2019-04-22T03:59:48.453Z,100639.89
2019-04-22T04:10:02.241Z,100639.09
2019-04-22T04:15:10.851Z,100636.23
2019-04-22T04:22:54.147Z,100631.42
2019-04-22T04:35:23.672Z,100622.38
2019-04-22T04:37:51.552Z,100613.09
2019-04-22T04:40:21.368Z,100615.11
2019-04-22T04:50:20.545Z,100616.29
2019-04-22T05:03:04.789Z,100617.67
2019-04-22T05:05:31.522Z,100608.93
2019-04-22T05:10:53.798Z,100620.86
2019-04-22T05:20:53.352Z,100618.27
2019-04-22T05:23:20.671Z,100615.77
2019-04-22T05:25:41.030Z,100617.84
2019-04-22T05:28:11.847Z,100619.85
2019-04-22T05:30:41.035Z,100610.92
2019-04-22T05:33:19.050Z,100606.83
2019-04-22T05:35:51.126Z,100608.20
2019-04-22T05:38:30.184Z,100610.23
2019-04-22T05:40:54.148Z,100607.28
2019-04-22T05:43:21.321Z,100604.86
2019-04-22T05:45:59.206Z,100605.40
2019-04-22T05:48:34.221Z,100598.16
2019-04-22T05:51:01.041Z,100596.52
2019-04-22T05:53:35.610Z,100594.22
2019-04-22T05:56:06.984Z,100597.59
2019-04-22T05:58:41.498Z,100596.98
2019-04-22T06:03:46.154Z,100597.86
2019-04-22T06:06:16.790Z,100599.56
2019-04-22T06:08:45.466Z,100603.24
2019-04-22T06:11:22.812Z,100603.13
2019-04-22T06:13:46.543Z,100601.52
2019-04-22T06:16:26.524Z,100604.52
2019-04-22T06:19:02.675Z,100602.91
2019-04-22T06:21:35.639Z,100604.60
2019-04-22T06:24:10.598Z,100595.29
2019-04-22T06:26:48.895Z,100600.64
2019-04-22T06:29:13.323Z,100598.00
2019-04-22T06:32:03.433Z,100598.34
2019-04-22T06:36:45.075Z,100601.02
2019-04-22T06:41:50.586Z,100596.09
2019-04-22T06:44:18.727Z,100596.91
2019-04-22T06:49:25.150Z,100599.45
2019-04-22T06:51:54.043Z,100595.12
2019-04-22T06:56:58.112Z,100585.19
2019-04-22T06:59:31.223Z,100584.67
2019-04-22T07:02:04.811Z,100586.02
2019-04-22T07:04:31.502Z,100590.19
2019-04-22T07:12:06.393Z,100580.89
2019-04-22T07:14:38.008Z,100582.45
2019-04-22T07:17:15.903Z,100586.92
2019-04-22T07:22:19.843Z,100582.61
2019-04-22T07:24:52.754Z,100584.45
2019-04-22T07:27:18.817Z,100584.43
2019-04-22T07:29:55.855Z,100583.60
2019-04-22T07:32:29.390Z,100580.95
2019-04-22T07:34:52.196Z,100579.63
2019-04-22T07:37:34.300Z,100575.09
2019-04-22T07:39:55.167Z,100578.60
2019-04-22T07:42:34.041Z,100572.78
2019-04-22T07:47:38.260Z,100572.25
2019-04-22T07:50:08.243Z,100573.59
2019-04-22T07:52:35.241Z,100563.26
2019-04-22T07:55:01.055Z,100572.06
2019-04-22T07:57:41.273Z,100557.89
2019-04-22T08:00:16.098Z,100555.56
2019-04-22T08:02:44.221Z,100555.53
2019-04-22T08:05:16.866Z,100553.69
2019-04-22T08:07:49.006Z,100552.68
2019-04-22T08:10:27.022Z,100544.47
2019-04-22T08:12:51.942Z,100535.80
2019-04-22T08:15:21.318Z,100538.33
2019-04-22T08:20:29.878Z,100535.09
2019-04-22T08:25:33.482Z,100535.70
2019-04-22T08:28:03.321Z,100531.69
2019-04-22T08:30:34.479Z,100527.50
2019-04-22T08:33:10.422Z,100523.98
2019-04-22T08:35:53.866Z,100523.77
2019-04-22T08:38:11.481Z,100520.58
2019-04-22T08:40:50.133Z,100510.83
2019-04-22T08:43:24.793Z,100512.96
2019-04-22T08:45:51.091Z,100505.43
2019-04-22T08:50:58.550Z,100509.02
2019-04-22T08:53:29.157Z,100505.81
2019-04-22T08:56:07.449Z,100501.09
2019-04-22T08:58:32.950Z,100503.59
2019-04-22T09:03:30.484Z,100487.19
2019-04-22T09:06:04.473Z,100480.45
2019-04-22T09:08:38.610Z,100472.91
2019-04-22T09:11:11.321Z,100472.38
2019-04-22T09:13:43.783Z,100468.00
2019-04-22T09:16:19.383Z,100475.25
2019-04-22T09:18:48.674Z,100457.05
2019-04-22T09:21:34.415Z,100456.66
2019-04-22T09:23:54.034Z,100457.59
2019-04-22T09:26:23.908Z,100456.91
2019-04-22T09:31:23.914Z,100452.17
2019-04-22T09:33:53.223Z,100451.80
2019-04-22T09:36:33.907Z,100443.70
2019-04-22T09:39:00.841Z,100434.63
2019-04-22T09:41:36.776Z,100443.95
2019-04-22T09:44:19.072Z,100436.17
2019-04-22T09:49:11.932Z,100436.77
2019-04-22T09:51:37.434Z,100420.84
2019-04-22T09:54:16.683Z,100413.56
2019-04-22T09:56:43.792Z,100415.69
2019-04-22T09:59:13.943Z,100410.61
2019-04-22T10:02:02.476Z,100398.98
2019-04-22T10:04:18.585Z,100397.41
2019-04-22T10:06:56.122Z,100392.97
2019-04-22T10:09:52.413Z,100388.67
2019-04-22T10:11:57.729Z,100380.40
2019-04-22T10:15:25.198Z,100368.39
2019-04-22T10:17:02.393Z,100378.02
2019-04-22T10:19:29.970Z,100375.93
2019-04-22T10:22:07.310Z,100381.45
2019-04-22T10:24:33.562Z,100370.52
2019-04-22T10:27:08.042Z,100367.96
2019-04-22T10:29:41.595Z,100364.47
2019-04-22T10:32:08.451Z,100365.94
2019-04-22T10:34:30.337Z,100371.36
2019-04-22T10:36:54.331Z,100364.39
2019-04-22T10:39:20.409Z,100358.32
2019-04-22T10:41:50.676Z,100350.11
2019-04-22T10:44:21.312Z,100345.59
2019-04-22T10:46:51.972Z,100353.08
2019-04-22T10:49:22.377Z,100334.92
2019-04-22T10:51:52.931Z,100334.92
2019-04-22T10:54:23.359Z,100330.20
2019-04-22T10:56:53.276Z,100328.84
2019-04-22T10:59:23.055Z,100325.52
2019-04-22T11:01:53.010Z,100317.11
2019-04-22T11:04:22.947Z,100313.18
2019-04-22T11:06:57.688Z,100313.86
2019-04-22T11:09:25.314Z,100296.78
2019-04-22T11:12:02.237Z,100309.44
2019-04-22T11:14:28.498Z,100282.28
2019-04-22T11:17:02.275Z,100272.77
2019-04-22T11:19:31.906Z,100272.77
2019-04-22T11:22:09.605Z,100284.80
2019-04-22T11:24:34.692Z,100284.39
2019-04-22T11:27:05.416Z,100254.37
2019-04-22T11:29:37.478Z,100265.07
2019-04-22T11:32:12.795Z,100254.51
2019-04-22T11:34:44.828Z,100254.51
2019-04-22T11:37:18.680Z,100256.34
2019-04-22T11:40:04.640Z,100256.34
2019-04-22T11:42:20.473Z,100252.45
2019-04-22T11:44:50.982Z,100239.63
2019-04-22T11:47:23.310Z,100243.30
2019-04-22T11:49:54.511Z,100241.93
2019-04-22T11:52:24.765Z,100241.19
2019-04-22T11:54:54.991Z,100238.38
2019-04-22T11:57:28.716Z,100234.98
2019-04-22T11:59:58.969Z,100233.02
2019-04-22T12:02:33.112Z,100231.52
2019-04-22T12:05:03.819Z,100218.31
2019-04-22T12:07:36.568Z,100212.68
2019-04-22T12:10:22.363Z,100206.27
2019-04-22T12:12:38.048Z,100201.20
2019-04-22T12:15:08.730Z,100200.72
2019-04-22T12:17:40.455Z,100204.30
2019-04-22T12:20:14.190Z,100195.03
2019-04-22T12:22:45.039Z,100179.50
2019-04-22T12:25:31.243Z,100182.16
2019-04-22T12:27:48.481Z,100173.80
2019-04-22T12:30:19.595Z,100165.40
2019-04-22T12:32:50.525Z,100174.85
2019-04-22T12:35:22.110Z,100160.69
2019-04-22T12:37:57.523Z,100153.20
2019-04-22T12:40:33.346Z,100151.47
2019-04-22T12:42:57.659Z,100147.83
2019-04-22T12:45:27.780Z,100136.31
2019-04-22T12:47:57.987Z,100141.66
2019-04-22T12:50:33.742Z,100140.22
2019-04-22T12:53:08.442Z,100138.50
2019-04-22T12:55:34.387Z,100122.35
2019-04-22T12:58:05.464Z,100126.54
2019-04-22T13:00:36.308Z,100107.38
2019-04-22T13:03:07.419Z,100118.11
2019-04-22T13:05:37.582Z,100106.86
2019-04-22T13:08:09.581Z,100108.34
2019-04-22T13:10:50.513Z,100105.50
2019-04-22T13:13:13.136Z,100108.30
2019-04-22T13:15:46.802Z,100091.81
2019-04-22T13:18:27.687Z,100090.25
2019-04-22T13:20:50.608Z,100083.00
2019-04-22T13:23:22.121Z,100086.38
2019-04-22T13:25:52.657Z,100081.80
2019-04-22T13:28:23.108Z,100085.95
2019-04-22T13:30:54.721Z,100072.94
2019-04-22T13:33:25.084Z,100067.61
2019-04-22T13:35:55.123Z,100065.47
2019-04-22T13:38:26.902Z,100060.91
2019-04-22T13:41:07.317Z,100066.09
2019-04-22T13:43:29.172Z,100053.62
2019-04-22T13:46:01.707Z,100047.34
2019-04-22T13:48:53.789Z,100049.54
2019-04-22T13:51:36.386Z,100044.64
2019-04-22T13:54:40.716Z,100040.58
2019-04-22T13:56:33.192Z,100038.97
2019-04-22T13:58:54.189Z,100033.02
2019-04-22T14:01:16.544Z,100024.01
2019-04-22T14:04:12.151Z,100017.18
2019-04-22T14:06:44.542Z,100021.48
2019-04-22T14:09:16.826Z,100017.09
2019-04-22T14:11:52.890Z,100005.09
2019-04-22T14:14:20.024Z,100005.78
2019-04-22T14:16:50.995Z,100002.99
2019-04-22T14:19:21.023Z,100000.45
2019-04-22T14:21:51.556Z,99997.93
2019-04-22T14:24:22.035Z,99991.48
2019-04-22T14:27:07.246Z,99988.94
2019-04-22T14:29:23.998Z,99980.91
2019-04-22T14:32:06.696Z,99986.77
2019-04-22T14:34:26.918Z,99983.62
2019-04-22T14:36:59.296Z,99971.83
2019-04-22T14:39:30.346Z,99976.37
2019-04-22T14:42:27.189Z,99972.73
2019-04-22T14:47:33.964Z,99972.31
2019-04-22T14:50:00.511Z,99967.10
2019-04-22T14:52:34.622Z,99968.09
2019-04-22T14:54:54.388Z,99956.05
2019-04-22T14:57:15.085Z,99947.02
2019-04-22T14:59:46.148Z,99945.84
2019-04-22T15:02:16.564Z,99947.44
2019-04-22T15:04:48.019Z,99937.55
2019-04-22T15:07:19.205Z,99936.12
2019-04-22T15:09:50.592Z,99933.16
2019-04-22T15:12:31.203Z,99925.83
2019-04-22T15:14:53.426Z,99937.48
2019-04-22T15:17:40.819Z,99932.59
2019-04-22T15:20:21.524Z,99921.72
2019-04-22T15:22:52.658Z,99919.79
2019-04-22T15:25:22.883Z,99915.77
2019-04-22T15:27:55.305Z,99917.16
2019-04-22T15:30:25.544Z,99911.50
2019-04-22T15:32:57.106Z,99909.58
2019-04-22T15:35:27.324Z,99907.16
2019-04-22T15:37:57.342Z,99906.37
2019-04-22T15:40:28.896Z,99906.66
2019-04-22T15:42:59.728Z,99905.30
2019-04-22T15:45:30.961Z,99909.72
2019-04-22T15:48:02.096Z,99904.88
2019-04-22T15:50:34.883Z,99902.73
2019-04-22T15:53:05.283Z,99904.91
2019-04-22T15:55:36.731Z,99900.07
2019-04-22T15:58:08.020Z,99898.50
2019-04-22T16:00:49.342Z,99896.43
2019-04-22T16:03:12.317Z,99896.97
2019-04-22T16:05:43.917Z,99895.45
2019-04-22T16:08:14.987Z,99896.31
2019-04-22T16:10:46.183Z,99893.59
2019-04-22T16:13:22.338Z,99888.75
2019-04-22T16:15:48.981Z,99886.61
2019-04-22T16:18:20.145Z,99883.39
2019-04-22T16:20:50.374Z,99879.33
2019-04-22T16:23:29.682Z,99876.30
2019-04-22T16:26:22.088Z,99874.13
2019-04-22T16:28:55.427Z,99876.48
2019-04-22T16:31:25.072Z,99875.75
2019-04-22T16:33:56.285Z,99880.25
2019-04-22T16:36:26.926Z,99874.15
2019-04-22T16:38:57.328Z,99869.77
2019-04-22T16:41:28.683Z,99864.99
2019-04-22T16:43:58.798Z,99863.99
2019-04-22T16:46:29.770Z,99855.93
2019-04-22T16:49:01.336Z,99859.28
2019-04-22T16:51:32.061Z,99854.96
2019-04-22T16:54:02.217Z,99852.78
2019-04-22T16:56:35.086Z,99847.55
2019-04-22T16:59:04.537Z,99848.87
2019-04-22T17:02:02.433Z,99849.09
2019-04-22T17:04:43.011Z,99845.28
2019-04-22T17:07:14.457Z,99847.67
2019-04-22T17:09:45.820Z,99844.92
2019-04-22T17:12:16.148Z,99844.85
2019-04-22T17:14:52.764Z,99845.31
2019-04-22T17:17:18.356Z,99850.86
2019-04-22T17:19:49.299Z,99848.70
2019-04-22T17:22:21.725Z,99846.33
2019-04-22T17:24:51.816Z,99843.69
2019-04-22T17:27:22.375Z,99843.76
2019-04-22T17:29:54.639Z,99839.72
2019-04-22T17:32:26.969Z,99846.23
2019-04-22T17:34:57.381Z,99836.81
2019-04-22T17:37:33.354Z,99840.34
2019-04-22T17:40:17.881Z,99830.66
2019-04-22T17:42:53.200Z,99833.40
2019-04-22T17:45:33.935Z,99836.45
2019-04-22T17:48:22.280Z,99827.31
2019-04-22T17:50:59.983Z,99837.69
2019-04-22T17:53:37.886Z,99841.02
2019-04-22T17:56:05.159Z,99846.25
2019-04-22T17:58:34.712Z,99840.07
2019-04-22T18:01:09.232Z,99838.25
2019-04-22T18:03:25.696Z,99837.78
2019-04-22T18:05:56.147Z,99838.45
2019-04-22T18:08:42.207Z,99836.69
2019-04-22T18:11:21.766Z,99839.20
2019-04-22T18:13:44.556Z,99840.39
2019-04-22T18:16:18.171Z,99848.06
2019-04-22T18:18:47.649Z,99848.20
2019-04-22T18:21:14.718Z,99848.00
2019-04-22T18:23:46.104Z,99850.77
2019-04-22T18:26:17.033Z,99841.06
2019-04-22T18:29:02.459Z,99851.94
2019-04-22T18:31:21.541Z,99849.86
2019-04-22T18:33:59.440Z,99851.86
2019-04-22T18:36:31.846Z,99849.55
2019-04-22T18:39:12.920Z,99856.70
2019-04-22T18:41:38.284Z,99856.78
2019-04-22T18:44:09.676Z,99857.98
2019-04-22T18:49:30.684Z,99871.05
2019-04-22T18:52:32.972Z,99868.42
2019-04-22T18:55:16.373Z,99866.33
2019-04-22T18:58:06.684Z,99873.38
2019-04-22T19:00:27.325Z,99872.93
2019-04-22T19:03:07.457Z,99879.28
2019-04-22T19:05:49.696Z,99871.61
2019-04-22T19:08:29.149Z,99877.88
2019-04-22T19:16:24.396Z,99879.16
2019-04-22T19:18:39.189Z,99878.70
2019-04-22T19:21:19.381Z,99876.91
2019-04-22T19:23:37.626Z,99877.27
2019-04-22T19:26:11.926Z,99875.33
2019-04-22T19:28:46.471Z,99877.63
2019-04-22T19:31:19.365Z,99881.20
2019-04-22T19:33:49.373Z,99883.11
2019-04-22T19:36:23.785Z,99886.58
2019-04-22T19:38:51.069Z,99886.58
2019-04-22T19:41:24.330Z,99888.05
2019-04-22T19:43:58.938Z,99888.19
2019-04-22T19:46:22.335Z,99886.53
2019-04-22T19:49:03.616Z,99883.67
2019-04-22T19:51:44.035Z,99892.52
2019-04-22T19:54:01.121Z,99891.59
2019-04-22T19:56:29.714Z,99888.73
2019-04-22T19:59:03.622Z,99889.17
2019-04-22T20:02:10.337Z,99892.90
2019-04-22T20:05:14.704Z,99895.44
2019-04-22T20:07:40.558Z,99890.32
2019-04-22T20:10:19.612Z,99907.70
2019-04-22T20:12:42.890Z,99904.34
2019-04-22T20:15:14.207Z,99900.47
2019-04-22T20:18:09.690Z,99904.50
2019-04-22T20:20:27.686Z,99894.91
2019-04-22T20:22:52.472Z,99897.81
2019-04-22T20:25:16.775Z,99894.33
2019-04-22T20:28:01.278Z,99893.41
2019-04-22T20:30:46.098Z,99886.55
2019-04-22T20:32:59.231Z,99891.21
2019-04-22T20:35:39.052Z,99882.60
2019-04-22T20:38:08.929Z,99884.55
2019-04-22T20:40:41.392Z,99878.12
2019-04-22T20:43:23.527Z,99875.16
2019-04-22T20:45:46.637Z,99875.16
2019-04-22T20:48:07.869Z,99873.94
2019-04-22T20:50:52.888Z,99874.58
2019-04-22T20:53:26.225Z,99870.45
2019-04-22T20:55:56.629Z,99875.45
2019-04-22T20:58:30.107Z,99864.31
2019-04-22T21:00:53.094Z,99860.83
2019-04-22T21:03:20.861Z,99875.28
2019-04-22T21:05:52.982Z,99867.28
2019-04-22T21:08:36.987Z,99867.28
2019-04-22T21:10:56.139Z,99869.14
2019-04-22T21:13:33.044Z,99867.91
2019-04-22T21:16:21.989Z,99854.52
2019-04-22T21:18:44.725Z,99863.83
2019-04-22T21:21:19.604Z,99861.95
2019-04-22T21:23:45.846Z,99857.22
2019-04-22T21:26:24.055Z,99849.83
2019-04-22T21:28:53.199Z,99857.88
2019-04-22T21:31:33.336Z,99846.06
2019-04-22T21:33:59.738Z,99846.06
2019-04-22T21:36:40.397Z,99854.11
2019-04-22T21:39:05.295Z,99847.52
2019-04-22T21:41:37.598Z,99854.53
2019-04-22T21:44:12.448Z,99858.06
2019-04-22T21:46:42.885Z,99854.46
2019-04-22T21:49:12.828Z,99857.25
2019-04-22T21:51:52.216Z,99864.56
2019-04-22T21:54:21.621Z,99860.98
2019-04-22T21:57:24.100Z,99857.06
2019-04-22T21:59:47.095Z,99852.87
2019-04-22T22:02:25.214Z,99852.41
2019-04-22T22:04:48.038Z,99856.34
2019-04-22T22:07:13.209Z,99856.34
2019-04-22T22:09:54.444Z,99851.08
2019-04-22T22:12:26.606Z,99845.42
2019-04-22T22:15:04.068Z,99840.47
2019-04-22T22:17:30.722Z,99836.05
2019-04-22T22:20:00.285Z,99836.05
2019-04-22T22:22:45.494Z,99839.13
2019-04-22T22:25:08.827Z,99835.83
2019-04-22T22:27:40.601Z,99835.95
2019-04-22T22:30:29.421Z,99833.06
2019-04-22T22:32:43.444Z,99828.83
2019-04-22T22:35:18.975Z,99828.83
2019-04-22T22:37:46.607Z,99818.64
2019-04-22T22:40:08.701Z,99822.55
2019-04-22T22:42:36.979Z,99813.27
2019-04-22T22:45:13.909Z,99815.64
2019-04-22T22:47:53.280Z,99820.99
2019-04-22T22:50:26.002Z,99821.70
2019-04-22T22:53:06.604Z,99817.16
2019-04-22T22:55:29.626Z,99820.55
2019-04-22T22:58:08.204Z,99815.85
2019-04-22T23:00:33.926Z,99806.41
2019-04-22T23:03:36.467Z,99809.36
2019-04-22T23:05:45.822Z,99815.81
2019-04-22T23:08:16.938Z,99807.88
2019-04-22T23:10:52.852Z,99809.64
2019-04-22T23:13:22.220Z,99807.45
2019-04-22T23:15:42.813Z,99801.27
2019-04-22T23:17:58.198Z,99800.33
2019-04-22T23:20:34.348Z,99796.63
2019-04-22T23:23:21.862Z,99794.74
2019-04-22T23:25:54.989Z,99799.77
2019-04-22T23:28:38.008Z,99791.83
2019-04-22T23:31:31.757Z,99787.30
2019-04-22T23:34:10.596Z,99785.73
2019-04-22T23:37:01.581Z,99779.36
2019-04-22T23:39:42.046Z,99775.74
2019-04-22T23:42:13.439Z,99778.53
2019-04-22T23:44:42.268Z,99775.85
2019-04-22T23:47:11.161Z,99775.61
2019-04-22T23:49:47.025Z,99769.83
2019-04-22T23:52:23.804Z,99769.51
2019-04-22T23:55:03.166Z,99769.39
2019-04-22T23:57:33.094Z,99765.93
